sensor_id;sensor_type;location;lat;lon;timestamp;P1;durP1;ratioP1;P2;durP2;ratioP2
12962;SDS011;6546;49.882;8.666;2023-04-21T00:01:45;28.97;;;25.07;;
12962;SDS011;6546;49.882;8.666;2023-04-21T00:04:12;27.93;;;23.83;;
12962;SDS011;6546;49.882;8.666;2023-04-21T00:06:39;30.77;;;25.97;;
12962;SDS011;6546;49.882;8.666;2023-04-21T00:09:08;31.33;;;25.67;;
12962;SDS011;6546;49.882;8.666;2023-04-21T00:11:36;30.67;;;25.57;;
12962;SDS011;6546;49.882;8.666;2023-04-21T00:14:11;33.00;;;26.70;;
12962;SDS011;6546;49.882;8.666;2023-04-21T00:16:38;33.53;;;27.00;;
12962;SDS011;6546;49.882;8.666;2023-04-21T00:19:04;37.53;;;28.47;;
12962;SDS011;6546;49.882;8.666;2023-04-21T00:21:31;36.40;;;28.53;;
12962;SDS011;6546;49.882;8.666;2023-04-21T00:24:01;33.87;;;27.67;;
12962;SDS011;6546;49.882;8.666;2023-04-21T00:26:29;32.13;;;26.73;;
12962;SDS011;6546;49.882;8.666;2023-04-21T00:28:56;34.90;;;27.53;;
12962;SDS011;6546;49.882;8.666;2023-04-21T00:31:22;33.83;;;27.97;;
12962;SDS011;6546;49.882;8.666;2023-04-21T00:33:49;35.47;;;27.97;;
12962;SDS011;6546;49.882;8.666;2023-04-21T00:36:15;34.33;;;29.33;;
12962;SDS011;6546;49.882;8.666;2023-04-21T00:38:45;31.60;;;26.30;;
12962;SDS011;6546;49.882;8.666;2023-04-21T00:41:12;33.97;;;27.73;;
12962;SDS011;6546;49.882;8.666;2023-04-21T00:46:27;36.63;;;28.60;;
12962;SDS011;6546;49.882;8.666;2023-04-21T00:48:54;35.77;;;27.97;;
12962;SDS011;6546;49.882;8.666;2023-04-21T00:51:22;34.23;;;28.23;;
12962;SDS011;6546;49.882;8.666;2023-04-21T00:53:49;37.63;;;29.33;;
12962;SDS011;6546;49.882;8.666;2023-04-21T00:56:16;37.60;;;29.33;;
12962;SDS011;6546;49.882;8.666;2023-04-21T00:58:43;36.07;;;28.97;;
12962;SDS011;6546;49.882;8.666;2023-04-21T01:01:13;38.13;;;29.07;;
12962;SDS011;6546;49.882;8.666;2023-04-21T01:03:40;36.30;;;29.37;;
12962;SDS011;6546;49.882;8.666;2023-04-21T01:06:06;38.00;;;30.07;;
12962;SDS011;6546;49.882;8.666;2023-04-21T01:08:34;36.37;;;28.53;;
12962;SDS011;6546;49.882;8.666;2023-04-21T01:11:07;35.50;;;28.90;;
12962;SDS011;6546;49.882;8.666;2023-04-21T01:13:34;38.23;;;30.63;;
12962;SDS011;6546;49.882;8.666;2023-04-21T01:16:01;37.30;;;29.60;;
12962;SDS011;6546;49.882;8.666;2023-04-21T01:18:29;41.23;;;30.87;;
12962;SDS011;6546;49.882;8.666;2023-04-21T01:20:56;39.00;;;30.00;;
12962;SDS011;6546;49.882;8.666;2023-04-21T01:23:24;37.47;;;29.30;;
12962;SDS011;6546;49.882;8.666;2023-04-21T01:25:52;38.30;;;30.63;;
12962;SDS011;6546;49.882;8.666;2023-04-21T01:28:20;39.17;;;30.27;;
12962;SDS011;6546;49.882;8.666;2023-04-21T01:30:47;37.97;;;29.80;;
12962;SDS011;6546;49.882;8.666;2023-04-21T01:33:13;38.63;;;30.23;;
12962;SDS011;6546;49.882;8.666;2023-04-21T01:35:40;35.73;;;29.03;;
12962;SDS011;6546;49.882;8.666;2023-04-21T01:38:07;38.57;;;29.97;;
12962;SDS011;6546;49.882;8.666;2023-04-21T01:40:35;37.80;;;29.83;;
12962;SDS011;6546;49.882;8.666;2023-04-21T01:43:02;37.10;;;29.03;;
12962;SDS011;6546;49.882;8.666;2023-04-21T01:45:29;36.83;;;29.17;;
12962;SDS011;6546;49.882;8.666;2023-04-21T01:47:55;38.20;;;28.60;;
12962;SDS011;6546;49.882;8.666;2023-04-21T01:50:22;34.07;;;28.50;;
12962;SDS011;6546;49.882;8.666;2023-04-21T01:52:48;34.67;;;28.33;;
12962;SDS011;6546;49.882;8.666;2023-04-21T01:55:15;36.30;;;29.73;;
12962;SDS011;6546;49.882;8.666;2023-04-21T01:57:43;35.60;;;28.97;;
12962;SDS011;6546;49.882;8.666;2023-04-21T02:00:10;38.03;;;29.33;;
12962;SDS011;6546;49.882;8.666;2023-04-21T02:02:37;37.20;;;29.13;;
12962;SDS011;6546;49.882;8.666;2023-04-21T02:05:04;35.30;;;28.80;;
12962;SDS011;6546;49.882;8.666;2023-04-21T02:07:31;36.40;;;28.47;;
12962;SDS011;6546;49.882;8.666;2023-04-21T02:09:58;35.83;;;27.37;;
12962;SDS011;6546;49.882;8.666;2023-04-21T02:12:24;35.53;;;28.90;;
12962;SDS011;6546;49.882;8.666;2023-04-21T02:14:53;34.83;;;27.93;;
12962;SDS011;6546;49.882;8.666;2023-04-21T02:17:19;37.93;;;29.43;;
12962;SDS011;6546;49.882;8.666;2023-04-21T02:19:46;34.03;;;27.20;;
12962;SDS011;6546;49.882;8.666;2023-04-21T02:22:12;34.03;;;27.93;;
12962;SDS011;6546;49.882;8.666;2023-04-21T02:24:39;34.00;;;27.53;;
12962;SDS011;6546;49.882;8.666;2023-04-21T02:27:05;40.27;;;28.97;;
12962;SDS011;6546;49.882;8.666;2023-04-21T02:29:32;35.00;;;28.27;;
12962;SDS011;6546;49.882;8.666;2023-04-21T02:32:00;35.40;;;28.87;;
12962;SDS011;6546;49.882;8.666;2023-04-21T02:34:26;36.53;;;29.33;;
12962;SDS011;6546;49.882;8.666;2023-04-21T02:36:53;35.63;;;28.03;;
12962;SDS011;6546;49.882;8.666;2023-04-21T02:39:20;36.90;;;27.53;;
12962;SDS011;6546;49.882;8.666;2023-04-21T02:41:46;35.23;;;27.57;;
12962;SDS011;6546;49.882;8.666;2023-04-21T02:44:13;34.07;;;27.90;;
12962;SDS011;6546;49.882;8.666;2023-04-21T02:46:39;33.20;;;26.57;;
12962;SDS011;6546;49.882;8.666;2023-04-21T02:49:07;45.97;;;27.47;;
12962;SDS011;6546;49.882;8.666;2023-04-21T02:51:34;32.30;;;25.93;;
12962;SDS011;6546;49.882;8.666;2023-04-21T02:54:01;35.37;;;28.77;;
12962;SDS011;6546;49.882;8.666;2023-04-21T02:56:27;36.73;;;29.23;;
12962;SDS011;6546;49.882;8.666;2023-04-21T02:58:54;36.63;;;29.80;;
12962;SDS011;6546;49.882;8.666;2023-04-21T03:01:21;38.53;;;27.03;;
12962;SDS011;6546;49.882;8.666;2023-04-21T03:03:47;34.70;;;26.93;;
12962;SDS011;6546;49.882;8.666;2023-04-21T03:06:15;33.37;;;27.80;;
12962;SDS011;6546;49.882;8.666;2023-04-21T03:08:42;34.93;;;26.57;;
12962;SDS011;6546;49.882;8.666;2023-04-21T03:11:08;31.30;;;26.63;;
12962;SDS011;6546;49.882;8.666;2023-04-21T03:13:35;36.40;;;26.93;;
12962;SDS011;6546;49.882;8.666;2023-04-21T03:16:01;35.57;;;28.13;;
12962;SDS011;6546;49.882;8.666;2023-04-21T03:18:28;38.50;;;27.90;;
12962;SDS011;6546;49.882;8.666;2023-04-21T03:20:57;33.63;;;27.20;;
12962;SDS011;6546;49.882;8.666;2023-04-21T03:23:26;34.70;;;27.30;;
12962;SDS011;6546;49.882;8.666;2023-04-21T03:25:53;34.57;;;25.33;;
12962;SDS011;6546;49.882;8.666;2023-04-21T03:28:19;33.87;;;26.43;;
12962;SDS011;6546;49.882;8.666;2023-04-21T03:30:46;35.43;;;27.30;;
12962;SDS011;6546;49.882;8.666;2023-04-21T03:33:12;30.97;;;25.63;;
12962;SDS011;6546;49.882;8.666;2023-04-21T03:35:39;31.70;;;25.40;;
12962;SDS011;6546;49.882;8.666;2023-04-21T03:38:05;35.50;;;25.00;;
12962;SDS011;6546;49.882;8.666;2023-04-21T03:40:33;32.00;;;24.43;;
12962;SDS011;6546;49.882;8.666;2023-04-21T03:43:00;32.17;;;24.57;;
12962;SDS011;6546;49.882;8.666;2023-04-21T03:45:26;29.37;;;23.93;;
12962;SDS011;6546;49.882;8.666;2023-04-21T03:47:53;30.43;;;24.23;;
12962;SDS011;6546;49.882;8.666;2023-04-21T03:50:21;27.53;;;23.30;;
12962;SDS011;6546;49.882;8.666;2023-04-21T03:52:47;26.53;;;22.43;;
12962;SDS011;6546;49.882;8.666;2023-04-21T03:55:14;28.17;;;22.83;;
12962;SDS011;6546;49.882;8.666;2023-04-21T03:57:42;32.47;;;23.00;;
12962;SDS011;6546;49.882;8.666;2023-04-21T04:00:09;27.33;;;21.60;;
12962;SDS011;6546;49.882;8.666;2023-04-21T04:02:36;31.07;;;21.57;;
12962;SDS011;6546;49.882;8.666;2023-04-21T04:05:03;25.40;;;21.50;;
12962;SDS011;6546;49.882;8.666;2023-04-21T04:07:31;27.93;;;22.80;;
12962;SDS011;6546;49.882;8.666;2023-04-21T04:09:58;32.67;;;22.30;;
12962;SDS011;6546;49.882;8.666;2023-04-21T04:12:25;32.80;;;22.97;;
12962;SDS011;6546;49.882;8.666;2023-04-21T04:14:53;30.53;;;22.03;;
12962;SDS011;6546;49.882;8.666;2023-04-21T04:17:19;35.03;;;22.47;;
12962;SDS011;6546;49.882;8.666;2023-04-21T04:19:46;33.03;;;21.00;;
12962;SDS011;6546;49.882;8.666;2023-04-21T04:22:12;40.27;;;21.90;;
12962;SDS011;6546;49.882;8.666;2023-04-21T04:24:39;26.77;;;21.17;;
12962;SDS011;6546;49.882;8.666;2023-04-21T04:27:05;27.90;;;21.13;;
12962;SDS011;6546;49.882;8.666;2023-04-21T04:29:33;26.00;;;20.67;;
12962;SDS011;6546;49.882;8.666;2023-04-21T04:32:01;26.60;;;21.07;;
12962;SDS011;6546;49.882;8.666;2023-04-21T04:34:30;30.10;;;20.00;;
12962;SDS011;6546;49.882;8.666;2023-04-21T04:36:56;28.37;;;20.07;;
12962;SDS011;6546;49.882;8.666;2023-04-21T04:39:23;26.97;;;20.47;;
12962;SDS011;6546;49.882;8.666;2023-04-21T04:41:50;27.10;;;20.20;;
12962;SDS011;6546;49.882;8.666;2023-04-21T04:44:18;25.20;;;18.43;;
12962;SDS011;6546;49.882;8.666;2023-04-21T04:46:45;22.37;;;18.53;;
12962;SDS011;6546;49.882;8.666;2023-04-21T04:49:14;24.20;;;19.00;;
12962;SDS011;6546;49.882;8.666;2023-04-21T04:51:41;21.93;;;18.33;;
12962;SDS011;6546;49.882;8.666;2023-04-21T04:54:08;22.47;;;19.90;;
12962;SDS011;6546;49.882;8.666;2023-04-21T04:56:34;24.17;;;19.93;;
12962;SDS011;6546;49.882;8.666;2023-04-21T04:59:01;21.93;;;18.40;;
12962;SDS011;6546;49.882;8.666;2023-04-21T05:01:28;22.23;;;18.73;;
12962;SDS011;6546;49.882;8.666;2023-04-21T05:03:55;20.77;;;17.97;;
12962;SDS011;6546;49.882;8.666;2023-04-21T05:06:23;20.00;;;17.63;;
12962;SDS011;6546;49.882;8.666;2023-04-21T05:08:50;21.43;;;18.77;;
12962;SDS011;6546;49.882;8.666;2023-04-21T05:11:16;22.17;;;19.77;;
12962;SDS011;6546;49.882;8.666;2023-04-21T05:13:43;23.73;;;19.37;;
12962;SDS011;6546;49.882;8.666;2023-04-21T05:16:09;21.53;;;19.07;;
12962;SDS011;6546;49.882;8.666;2023-04-21T05:18:36;21.77;;;18.87;;
12962;SDS011;6546;49.882;8.666;2023-04-21T05:21:03;21.60;;;18.50;;
12962;SDS011;6546;49.882;8.666;2023-04-21T05:23:31;20.20;;;18.10;;
12962;SDS011;6546;49.882;8.666;2023-04-21T05:25:57;23.20;;;19.13;;
12962;SDS011;6546;49.882;8.666;2023-04-21T05:28:24;23.83;;;19.67;;
12962;SDS011;6546;49.882;8.666;2023-04-21T05:30:54;22.47;;;19.57;;
12962;SDS011;6546;49.882;8.666;2023-04-21T05:33:20;21.60;;;18.33;;
12962;SDS011;6546;49.882;8.666;2023-04-21T05:35:47;21.93;;;19.17;;
12962;SDS011;6546;49.882;8.666;2023-04-21T05:38:13;19.70;;;17.60;;
12962;SDS011;6546;49.882;8.666;2023-04-21T05:40:41;19.70;;;17.53;;
12962;SDS011;6546;49.882;8.666;2023-04-21T05:43:08;19.57;;;17.47;;
12962;SDS011;6546;49.882;8.666;2023-04-21T05:45:37;18.43;;;16.33;;
12962;SDS011;6546;49.882;8.666;2023-04-21T05:48:04;20.67;;;17.50;;
12962;SDS011;6546;49.882;8.666;2023-04-21T05:50:31;20.57;;;17.83;;
12962;SDS011;6546;49.882;8.666;2023-04-21T05:52:59;20.40;;;18.20;;
12962;SDS011;6546;49.882;8.666;2023-04-21T05:55:26;18.77;;;16.77;;
12962;SDS011;6546;49.882;8.666;2023-04-21T05:57:55;19.83;;;17.63;;
12962;SDS011;6546;49.882;8.666;2023-04-21T06:00:21;19.87;;;16.73;;
12962;SDS011;6546;49.882;8.666;2023-04-21T06:02:48;19.40;;;16.93;;
12962;SDS011;6546;49.882;8.666;2023-04-21T06:05:14;20.23;;;16.93;;
12962;SDS011;6546;49.882;8.666;2023-04-21T06:07:41;20.23;;;17.83;;
12962;SDS011;6546;49.882;8.666;2023-04-21T06:10:08;17.67;;;15.87;;
12962;SDS011;6546;49.882;8.666;2023-04-21T06:12:35;19.73;;;17.40;;
12962;SDS011;6546;49.882;8.666;2023-04-21T06:15:04;18.83;;;16.83;;
12962;SDS011;6546;49.882;8.666;2023-04-21T06:17:31;17.87;;;15.97;;
12962;SDS011;6546;49.882;8.666;2023-04-21T06:19:58;19.17;;;17.10;;
12962;SDS011;6546;49.882;8.666;2023-04-21T06:22:24;19.77;;;17.60;;
12962;SDS011;6546;49.882;8.666;2023-04-21T06:24:52;19.57;;;17.37;;
12962;SDS011;6546;49.882;8.666;2023-04-21T06:27:18;20.63;;;18.03;;
12962;SDS011;6546;49.882;8.666;2023-04-21T06:29:45;23.03;;;18.93;;
12962;SDS011;6546;49.882;8.666;2023-04-21T06:32:13;20.37;;;18.13;;
12962;SDS011;6546;49.882;8.666;2023-04-21T06:34:39;20.70;;;18.03;;
12962;SDS011;6546;49.882;8.666;2023-04-21T06:37:06;20.83;;;17.93;;
12962;SDS011;6546;49.882;8.666;2023-04-21T06:39:32;21.90;;;18.83;;
12962;SDS011;6546;49.882;8.666;2023-04-21T06:41:59;20.80;;;18.47;;
12962;SDS011;6546;49.882;8.666;2023-04-21T06:44:26;20.73;;;17.37;;
12962;SDS011;6546;49.882;8.666;2023-04-21T06:46:53;20.33;;;16.53;;
12962;SDS011;6546;49.882;8.666;2023-04-21T06:49:21;19.30;;;17.30;;
12962;SDS011;6546;49.882;8.666;2023-04-21T06:51:47;17.63;;;15.73;;
12962;SDS011;6546;49.882;8.666;2023-04-21T06:54:14;17.30;;;14.77;;
12962;SDS011;6546;49.882;8.666;2023-04-21T06:56:40;16.43;;;14.73;;
12962;SDS011;6546;49.882;8.666;2023-04-21T06:59:07;15.27;;;13.67;;
12962;SDS011;6546;49.882;8.666;2023-04-21T07:01:34;16.73;;;14.83;;
12962;SDS011;6546;49.882;8.666;2023-04-21T07:04:00;16.87;;;15.07;;
12962;SDS011;6546;49.882;8.666;2023-04-21T07:06:29;16.93;;;15.23;;
12962;SDS011;6546;49.882;8.666;2023-04-21T07:08:57;17.77;;;15.87;;
12962;SDS011;6546;49.882;8.666;2023-04-21T07:11:24;18.17;;;16.27;;
12962;SDS011;6546;49.882;8.666;2023-04-21T07:13:52;17.60;;;15.80;;
12962;SDS011;6546;49.882;8.666;2023-04-21T07:16:19;18.17;;;15.77;;
12962;SDS011;6546;49.882;8.666;2023-04-21T07:18:45;17.47;;;15.50;;
12962;SDS011;6546;49.882;8.666;2023-04-21T07:21:12;17.10;;;15.30;;
12962;SDS011;6546;49.882;8.666;2023-04-21T07:23:40;15.90;;;14.30;;
12962;SDS011;6546;49.882;8.666;2023-04-21T07:26:06;16.70;;;15.00;;
12962;SDS011;6546;49.882;8.666;2023-04-21T07:28:33;17.03;;;15.33;;
12962;SDS011;6546;49.882;8.666;2023-04-21T07:30:59;16.10;;;14.53;;
12962;SDS011;6546;49.882;8.666;2023-04-21T07:33:26;16.53;;;14.83;;
12962;SDS011;6546;49.882;8.666;2023-04-21T07:35:52;17.17;;;15.47;;
12962;SDS011;6546;49.882;8.666;2023-04-21T07:38:19;16.03;;;14.10;;
12962;SDS011;6546;49.882;8.666;2023-04-21T07:40:47;17.03;;;15.33;;
12962;SDS011;6546;49.882;8.666;2023-04-21T07:43:14;16.90;;;15.17;;
12962;SDS011;6546;49.882;8.666;2023-04-21T07:45:40;17.83;;;15.97;;
12962;SDS011;6546;49.882;8.666;2023-04-21T07:48:10;17.70;;;15.80;;
12962;SDS011;6546;49.882;8.666;2023-04-21T07:50:36;16.07;;;14.37;;
12962;SDS011;6546;49.882;8.666;2023-04-21T07:53:03;17.37;;;15.47;;
12962;SDS011;6546;49.882;8.666;2023-04-21T07:55:30;18.00;;;15.73;;
12962;SDS011;6546;49.882;8.666;2023-04-21T07:57:58;17.80;;;16.00;;
12962;SDS011;6546;49.882;8.666;2023-04-21T08:00:25;16.67;;;14.97;;
12962;SDS011;6546;49.882;8.666;2023-04-21T08:02:51;18.60;;;15.97;;
12962;SDS011;6546;49.882;8.666;2023-04-21T08:05:18;16.60;;;14.90;;
12962;SDS011;6546;49.882;8.666;2023-04-21T08:07:45;16.97;;;14.57;;
12962;SDS011;6546;49.882;8.666;2023-04-21T08:10:11;16.10;;;14.40;;
12962;SDS011;6546;49.882;8.666;2023-04-21T08:12:38;16.03;;;14.43;;
12962;SDS011;6546;49.882;8.666;2023-04-21T08:15:06;15.20;;;13.70;;
12962;SDS011;6546;49.882;8.666;2023-04-21T08:17:36;15.63;;;13.80;;
12962;SDS011;6546;49.882;8.666;2023-04-21T08:20:03;16.13;;;14.43;;
12962;SDS011;6546;49.882;8.666;2023-04-21T08:22:31;15.90;;;14.30;;
12962;SDS011;6546;49.882;8.666;2023-04-21T08:24:58;16.20;;;14.50;;
12962;SDS011;6546;49.882;8.666;2023-04-21T08:27:24;16.90;;;15.13;;
12962;SDS011;6546;49.882;8.666;2023-04-21T08:29:51;17.10;;;15.30;;
12962;SDS011;6546;49.882;8.666;2023-04-21T08:32:19;16.07;;;14.47;;
12962;SDS011;6546;49.882;8.666;2023-04-21T08:34:48;17.90;;;14.80;;
12962;SDS011;6546;49.882;8.666;2023-04-21T08:37:15;16.07;;;14.40;;
12962;SDS011;6546;49.882;8.666;2023-04-21T08:39:42;17.63;;;15.23;;
12962;SDS011;6546;49.882;8.666;2023-04-21T08:42:09;17.30;;;15.50;;
12962;SDS011;6546;49.882;8.666;2023-04-21T08:44:36;16.77;;;15.07;;
12962;SDS011;6546;49.882;8.666;2023-04-21T08:47:02;17.07;;;15.30;;
12962;SDS011;6546;49.882;8.666;2023-04-21T08:49:31;16.60;;;14.80;;
12962;SDS011;6546;49.882;8.666;2023-04-21T08:51:59;16.20;;;14.47;;
12962;SDS011;6546;49.882;8.666;2023-04-21T08:54:30;16.83;;;15.07;;
12962;SDS011;6546;49.882;8.666;2023-04-21T08:56:58;17.90;;;15.43;;
12962;SDS011;6546;49.882;8.666;2023-04-21T08:59:24;17.93;;;15.37;;
12962;SDS011;6546;49.882;8.666;2023-04-21T09:02:07;18.13;;;16.23;;
12962;SDS011;6546;49.882;8.666;2023-04-21T09:04:38;17.83;;;15.97;;
12962;SDS011;6546;49.882;8.666;2023-04-21T09:07:05;18.80;;;16.80;;
12962;SDS011;6546;49.882;8.666;2023-04-21T09:09:32;18.67;;;16.13;;
12962;SDS011;6546;49.882;8.666;2023-04-21T09:11:59;18.80;;;16.57;;
12962;SDS011;6546;49.882;8.666;2023-04-21T09:14:32;18.37;;;16.47;;
12962;SDS011;6546;49.882;8.666;2023-04-21T09:17:00;18.33;;;16.00;;
12962;SDS011;6546;49.882;8.666;2023-04-21T09:19:28;17.13;;;15.30;;
12962;SDS011;6546;49.882;8.666;2023-04-21T09:21:56;17.93;;;15.40;;
12962;SDS011;6546;49.882;8.666;2023-04-21T09:24:22;18.47;;;16.40;;
12962;SDS011;6546;49.882;8.666;2023-04-21T09:26:49;17.80;;;15.67;;
12962;SDS011;6546;49.882;8.666;2023-04-21T09:29:17;18.37;;;15.37;;
12962;SDS011;6546;49.882;8.666;2023-04-21T09:31:43;17.53;;;15.60;;
12962;SDS011;6546;49.882;8.666;2023-04-21T09:34:16;17.93;;;15.10;;
12962;SDS011;6546;49.882;8.666;2023-04-21T09:36:44;17.73;;;15.53;;
12962;SDS011;6546;49.882;8.666;2023-04-21T09:39:12;19.97;;;16.50;;
12962;SDS011;6546;49.882;8.666;2023-04-21T09:41:39;19.07;;;16.20;;
12962;SDS011;6546;49.882;8.666;2023-04-21T09:44:05;18.70;;;16.67;;
12962;SDS011;6546;49.882;8.666;2023-04-21T09:46:32;18.20;;;16.20;;
12962;SDS011;6546;49.882;8.666;2023-04-21T09:49:00;18.70;;;16.13;;
12962;SDS011;6546;49.882;8.666;2023-04-21T09:51:28;18.30;;;16.20;;
12962;SDS011;6546;49.882;8.666;2023-04-21T09:53:57;19.10;;;17.10;;
12962;SDS011;6546;49.882;8.666;2023-04-21T09:56:27;19.07;;;17.03;;
12962;SDS011;6546;49.882;8.666;2023-04-21T09:58:58;19.97;;;16.90;;
12962;SDS011;6546;49.882;8.666;2023-04-21T10:01:26;19.80;;;16.83;;
12962;SDS011;6546;49.882;8.666;2023-04-21T10:03:58;21.77;;;18.43;;
12962;SDS011;6546;49.882;8.666;2023-04-21T10:06:24;21.67;;;17.63;;
12962;SDS011;6546;49.882;8.666;2023-04-21T10:08:51;20.83;;;18.13;;
12962;SDS011;6546;49.882;8.666;2023-04-21T10:11:20;20.83;;;18.47;;
12962;SDS011;6546;49.882;8.666;2023-04-21T10:13:49;21.07;;;18.80;;
12962;SDS011;6546;49.882;8.666;2023-04-21T10:16:16;20.27;;;18.07;;
12962;SDS011;6546;49.882;8.666;2023-04-21T10:18:44;22.90;;;19.30;;
12962;SDS011;6546;49.882;8.666;2023-04-21T10:21:11;21.60;;;18.90;;
12962;SDS011;6546;49.882;8.666;2023-04-21T10:23:45;22.77;;;20.37;;
12962;SDS011;6546;49.882;8.666;2023-04-21T10:26:13;21.60;;;18.50;;
12962;SDS011;6546;49.882;8.666;2023-04-21T10:28:44;20.23;;;18.13;;
12962;SDS011;6546;49.882;8.666;2023-04-21T10:31:20;20.83;;;18.67;;
12962;SDS011;6546;49.882;8.666;2023-04-21T10:36:41;24.07;;;19.00;;
12962;SDS011;6546;49.882;8.666;2023-04-21T10:39:23;20.97;;;18.63;;
12962;SDS011;6546;49.882;8.666;2023-04-21T10:41:52;20.60;;;18.17;;
12962;SDS011;6546;49.882;8.666;2023-04-21T10:44:20;21.23;;;17.67;;
12962;SDS011;6546;49.882;8.666;2023-04-21T10:46:49;20.77;;;18.50;;
12962;SDS011;6546;49.882;8.666;2023-04-21T10:49:20;20.77;;;18.10;;
12962;SDS011;6546;49.882;8.666;2023-04-21T10:52:03;21.43;;;18.67;;
12962;SDS011;6546;49.882;8.666;2023-04-21T10:54:35;21.30;;;18.93;;
12962;SDS011;6546;49.882;8.666;2023-04-21T10:57:06;22.63;;;20.10;;
12962;SDS011;6546;49.882;8.666;2023-04-21T10:59:34;21.70;;;19.10;;
12962;SDS011;6546;49.882;8.666;2023-04-21T11:02:02;19.97;;;17.87;;
12962;SDS011;6546;49.882;8.666;2023-04-21T11:04:30;20.53;;;18.23;;
12962;SDS011;6546;49.882;8.666;2023-04-21T11:07:04;22.70;;;19.77;;
12962;SDS011;6546;49.882;8.666;2023-04-21T11:09:31;22.53;;;19.57;;
12962;SDS011;6546;49.882;8.666;2023-04-21T11:11:58;20.47;;;18.33;;
12962;SDS011;6546;49.882;8.666;2023-04-21T11:14:26;22.93;;;20.13;;
12962;SDS011;6546;49.882;8.666;2023-04-21T11:16:53;23.23;;;19.37;;
12962;SDS011;6546;49.882;8.666;2023-04-21T11:19:21;22.50;;;19.33;;
12962;SDS011;6546;49.882;8.666;2023-04-21T11:21:49;23.57;;;19.23;;
12962;SDS011;6546;49.882;8.666;2023-04-21T11:24:16;25.10;;;20.10;;
12962;SDS011;6546;49.882;8.666;2023-04-21T11:26:42;21.67;;;18.83;;
12962;SDS011;6546;49.882;8.666;2023-04-21T11:29:09;23.10;;;18.83;;
12962;SDS011;6546;49.882;8.666;2023-04-21T11:31:37;20.67;;;18.43;;
12962;SDS011;6546;49.882;8.666;2023-04-21T11:34:05;22.77;;;18.83;;
12962;SDS011;6546;49.882;8.666;2023-04-21T11:36:33;20.70;;;18.50;;
12962;SDS011;6546;49.882;8.666;2023-04-21T11:39:03;22.33;;;19.77;;
12962;SDS011;6546;49.882;8.666;2023-04-21T11:41:32;22.20;;;19.10;;
12962;SDS011;6546;49.882;8.666;2023-04-21T11:44:00;19.90;;;17.73;;
12962;SDS011;6546;49.882;8.666;2023-04-21T11:46:27;19.37;;;17.37;;
12962;SDS011;6546;49.882;8.666;2023-04-21T11:48:57;19.97;;;17.87;;
12962;SDS011;6546;49.882;8.666;2023-04-21T11:51:24;18.87;;;16.83;;
12962;SDS011;6546;49.882;8.666;2023-04-21T11:53:53;20.00;;;17.93;;
12962;SDS011;6546;49.882;8.666;2023-04-21T11:56:20;21.97;;;17.83;;
12962;SDS011;6546;49.882;8.666;2023-04-21T11:58:47;18.13;;;16.23;;
12962;SDS011;6546;49.882;8.666;2023-04-21T12:01:15;19.43;;;17.43;;
12962;SDS011;6546;49.882;8.666;2023-04-21T12:03:48;20.57;;;18.47;;
12962;SDS011;6546;49.882;8.666;2023-04-21T12:06:19;21.17;;;19.03;;
12962;SDS011;6546;49.882;8.666;2023-04-21T12:08:46;22.87;;;19.57;;
12962;SDS011;6546;49.882;8.666;2023-04-21T12:11:16;20.93;;;18.67;;
12962;SDS011;6546;49.882;8.666;2023-04-21T12:13:43;21.37;;;18.23;;
12962;SDS011;6546;49.882;8.666;2023-04-21T12:16:11;21.67;;;17.43;;
12962;SDS011;6546;49.882;8.666;2023-04-21T12:18:37;19.70;;;17.60;;
12962;SDS011;6546;49.882;8.666;2023-04-21T12:21:04;19.87;;;17.30;;
12962;SDS011;6546;49.882;8.666;2023-04-21T12:23:31;19.07;;;17.03;;
12962;SDS011;6546;49.882;8.666;2023-04-21T12:25:57;19.43;;;17.20;;
12962;SDS011;6546;49.882;8.666;2023-04-21T12:28:26;20.53;;;15.87;;
12962;SDS011;6546;49.882;8.666;2023-04-21T12:30:52;18.40;;;16.17;;
12962;SDS011;6546;49.882;8.666;2023-04-21T12:33:19;19.87;;;17.60;;
12962;SDS011;6546;49.882;8.666;2023-04-21T12:35:45;18.93;;;16.33;;
12962;SDS011;6546;49.882;8.666;2023-04-21T12:38:12;18.23;;;16.27;;
12962;SDS011;6546;49.882;8.666;2023-04-21T12:40:38;18.70;;;15.87;;
12962;SDS011;6546;49.882;8.666;2023-04-21T12:43:05;18.23;;;16.00;;
12962;SDS011;6546;49.882;8.666;2023-04-21T12:45:33;18.57;;;16.67;;
12962;SDS011;6546;49.882;8.666;2023-04-21T12:47:59;18.83;;;16.33;;
12962;SDS011;6546;49.882;8.666;2023-04-21T12:50:27;18.20;;;16.30;;
12962;SDS011;6546;49.882;8.666;2023-04-21T12:52:54;19.83;;;15.93;;
12962;SDS011;6546;49.882;8.666;2023-04-21T12:55:20;17.43;;;15.63;;
12962;SDS011;6546;49.882;8.666;2023-04-21T12:57:47;16.87;;;15.10;;
12962;SDS011;6546;49.882;8.666;2023-04-21T13:00:15;17.23;;;15.43;;
12962;SDS011;6546;49.882;8.666;2023-04-21T13:02:43;17.60;;;15.70;;
12962;SDS011;6546;49.882;8.666;2023-04-21T13:05:10;18.87;;;16.87;;
12962;SDS011;6546;49.882;8.666;2023-04-21T13:07:37;18.37;;;16.57;;
12962;SDS011;6546;49.882;8.666;2023-04-21T13:10:04;20.40;;;18.23;;
12962;SDS011;6546;49.882;8.666;2023-04-21T13:12:31;18.27;;;16.43;;
12962;SDS011;6546;49.882;8.666;2023-04-21T13:14:58;17.73;;;15.80;;
12962;SDS011;6546;49.882;8.666;2023-04-21T13:17:25;15.83;;;14.13;;
12962;SDS011;6546;49.882;8.666;2023-04-21T13:19:53;14.87;;;13.47;;
12962;SDS011;6546;49.882;8.666;2023-04-21T13:22:19;15.47;;;13.97;;
12962;SDS011;6546;49.882;8.666;2023-04-21T13:24:46;16.00;;;14.30;;
12962;SDS011;6546;49.882;8.666;2023-04-21T13:27:13;15.23;;;13.57;;
12962;SDS011;6546;49.882;8.666;2023-04-21T13:29:39;15.63;;;13.93;;
12962;SDS011;6546;49.882;8.666;2023-04-21T13:32:06;16.40;;;13.53;;
12962;SDS011;6546;49.882;8.666;2023-04-21T13:34:33;14.20;;;12.70;;
12962;SDS011;6546;49.882;8.666;2023-04-21T13:37:01;15.40;;;13.77;;
12962;SDS011;6546;49.882;8.666;2023-04-21T13:39:28;15.37;;;13.70;;
12962;SDS011;6546;49.882;8.666;2023-04-21T13:41:54;16.63;;;14.70;;
12962;SDS011;6546;49.882;8.666;2023-04-21T13:44:21;13.67;;;12.37;;
12962;SDS011;6546;49.882;8.666;2023-04-21T13:46:47;14.17;;;12.77;;
12962;SDS011;6546;49.882;8.666;2023-04-21T13:49:16;14.30;;;12.80;;
12962;SDS011;6546;49.882;8.666;2023-04-21T13:51:42;15.37;;;13.73;;
12962;SDS011;6546;49.882;8.666;2023-04-21T13:54:10;14.50;;;12.77;;
12962;SDS011;6546;49.882;8.666;2023-04-21T13:56:37;12.63;;;11.33;;
12962;SDS011;6546;49.882;8.666;2023-04-21T13:59:03;15.00;;;12.97;;
12962;SDS011;6546;49.882;8.666;2023-04-21T14:01:31;13.50;;;12.10;;
12962;SDS011;6546;49.882;8.666;2023-04-21T14:03:57;12.30;;;11.10;;
12962;SDS011;6546;49.882;8.666;2023-04-21T14:06:24;12.57;;;10.93;;
12962;SDS011;6546;49.882;8.666;2023-04-21T14:08:51;14.70;;;11.50;;
12962;SDS011;6546;49.882;8.666;2023-04-21T14:11:20;12.97;;;11.27;;
12962;SDS011;6546;49.882;8.666;2023-04-21T14:13:46;11.63;;;10.50;;
12962;SDS011;6546;49.882;8.666;2023-04-21T14:16:13;14.10;;;11.20;;
12962;SDS011;6546;49.882;8.666;2023-04-21T14:18:39;12.13;;;10.90;;
12962;SDS011;6546;49.882;8.666;2023-04-21T14:21:09;11.13;;;10.13;;
12962;SDS011;6546;49.882;8.666;2023-04-21T14:23:35;10.93;;;9.10;;
12962;SDS011;6546;49.882;8.666;2023-04-21T14:26:02;12.93;;;11.53;;
12962;SDS011;6546;49.882;8.666;2023-04-21T14:28:30;11.70;;;10.50;;
12962;SDS011;6546;49.882;8.666;2023-04-21T14:30:56;10.43;;;9.37;;
12962;SDS011;6546;49.882;8.666;2023-04-21T14:33:23;11.97;;;10.20;;
12962;SDS011;6546;49.882;8.666;2023-04-21T14:35:49;11.53;;;10.37;;
12962;SDS011;6546;49.882;8.666;2023-04-21T14:38:16;13.43;;;9.97;;
12962;SDS011;6546;49.882;8.666;2023-04-21T14:40:42;11.90;;;10.80;;
12962;SDS011;6546;49.882;8.666;2023-04-21T14:43:09;12.00;;;10.80;;